createdAt,value
2022-10-21T00:00:15.314Z,100956.63
2022-10-21T00:02:46.256Z,100952.53
2022-10-21T00:05:16.253Z,100944.00
2022-10-21T00:07:45.784Z,100946.75
2022-10-21T00:10:15.653Z,100950.13
2022-10-21T00:12:45.456Z,100937.38
2022-10-21T00:15:15.259Z,100952.28
2022-10-21T00:17:45.044Z,100940.97
2022-10-21T00:20:15.078Z,100949.31
2022-10-21T00:22:44.947Z,100953.50
2022-10-21T00:29:47.260Z,100964.47
2022-10-21T00:32:17.354Z,100960.81
2022-10-21T00:34:47.408Z,100968.44
2022-10-21T00:37:17.560Z,100958.53
2022-10-21T00:39:44.816Z,100959.91
2022-10-21T00:42:23.222Z,100963.50
2022-10-21T00:45:07.181Z,100961.28
2022-10-21T00:48:10.117Z,100955.53
2022-10-21T00:51:14.652Z,100958.00
2022-10-21T00:53:50.076Z,100953.53
2022-10-21T00:56:28.235Z,100948.00
2022-10-21T00:59:02.838Z,100949.34
2022-10-21T01:01:33.729Z,100949.56
2022-10-21T01:04:04.065Z,100950.06
2022-10-21T01:06:34.098Z,100950.41
2022-10-21T01:09:06.569Z,100942.41
2022-10-21T01:11:47.440Z,100937.13
2022-10-21T01:18:26.646Z,100938.38
2022-10-21T01:21:26.581Z,100936.94
2022-10-21T01:25:07.289Z,100931.44
2022-10-21T01:28:20.834Z,100926.50
2022-10-21T01:31:38.551Z,100916.81
2022-10-21T01:34:41.762Z,100901.38
2022-10-21T01:38:04.150Z,100901.06
2022-10-21T01:40:51.495Z,100895.53
2022-10-21T01:43:44.157Z,100884.00
2022-10-21T01:46:40.508Z,100882.03
2022-10-21T01:49:27.279Z,100882.03
2022-10-21T01:52:02.357Z,100878.66
2022-10-21T01:54:45.005Z,100873.38
2022-10-21T01:57:22.496Z,100875.00
2022-10-21T01:59:57.564Z,100866.66
2022-10-21T02:02:37.728Z,100858.66
2022-10-21T02:05:23.150Z,100848.75
2022-10-21T02:07:54.527Z,100854.81
2022-10-21T02:10:34.842Z,100845.78
2022-10-21T02:13:12.231Z,100846.81
2022-10-21T02:15:44.858Z,100834.56
2022-10-21T02:18:24.635Z,100827.19
2022-10-21T02:21:08.198Z,100816.34
2022-10-21T02:24:04.722Z,100823.81
2022-10-21T02:26:34.705Z,100809.38
2022-10-21T02:29:04.953Z,100805.00
2022-10-21T02:32:13.107Z,100801.94
2022-10-21T02:35:18.649Z,100807.47
2022-10-21T02:38:06.024Z,100810.53
2022-10-21T02:40:48.510Z,100797.22
2022-10-21T02:43:55.576Z,100796.59
2022-10-21T02:46:35.076Z,100796.59
2022-10-21T02:49:05.036Z,100802.66
2022-10-21T02:51:36.097Z,100788.53
2022-10-21T02:54:06.021Z,100781.19
2022-10-21T02:56:35.825Z,100776.28
2022-10-21T02:59:05.676Z,100782.44
2022-10-21T03:01:35.485Z,100773.94
2022-10-21T03:04:05.399Z,100774.44
2022-10-21T03:06:35.521Z,100775.25
2022-10-21T03:09:05.518Z,100766.88
2022-10-21T03:11:35.343Z,100767.09
2022-10-21T03:14:05.092Z,100758.78
2022-10-21T03:16:34.883Z,100771.56
2022-10-21T03:19:04.874Z,100775.25
2022-10-21T03:21:34.636Z,100779.34
2022-10-21T03:24:10.904Z,100773.53
2022-10-21T03:26:49.516Z,100775.03
2022-10-21T03:29:19.279Z,100772.66
2022-10-21T03:31:49.195Z,100772.28
2022-10-21T03:34:18.964Z,100762.13
2022-10-21T03:36:49.048Z,100761.03
2022-10-21T03:39:18.807Z,100756.63
2022-10-21T03:41:48.565Z,100771.56
2022-10-21T03:44:18.321Z,100769.38
2022-10-21T03:46:48.076Z,100774.09
2022-10-21T03:49:21.359Z,100782.38
2022-10-21T03:51:51.355Z,100794.25
2022-10-21T03:54:21.542Z,100791.47
2022-10-21T03:56:51.374Z,100787.91
2022-10-21T03:59:20.768Z,100783.72
2022-10-21T04:01:50.501Z,100768.81
2022-10-21T04:04:20.303Z,100777.59
2022-10-21T04:06:50.102Z,100764.59
2022-10-21T04:09:19.920Z,100766.03
2022-10-21T04:11:49.929Z,100764.91
2022-10-21T04:14:20.120Z,100759.09
2022-10-21T04:16:53.589Z,100746.59
2022-10-21T04:19:31.960Z,100729.22
2022-10-21T04:22:01.650Z,100726.66
2022-10-21T04:24:31.481Z,100722.56
2022-10-21T04:27:01.220Z,100717.53
2022-10-21T04:29:30.952Z,100708.44
2022-10-21T04:32:00.674Z,100711.72
2022-10-21T04:34:30.845Z,100708.16
2022-10-21T04:37:04.042Z,100704.25
2022-10-21T04:39:34.972Z,100703.44
2022-10-21T04:42:05.811Z,100691.78
2022-10-21T04:44:39.802Z,100685.44
2022-10-21T04:47:09.620Z,100676.84
2022-10-21T04:49:39.332Z,100682.59
2022-10-21T04:52:09.082Z,100687.19
2022-10-21T04:54:38.823Z,100686.88
2022-10-21T04:57:08.712Z,100686.38
2022-10-21T04:59:38.458Z,100680.84
2022-10-21T05:02:08.193Z,100674.19
2022-10-21T05:04:37.861Z,100663.13
2022-10-21T05:07:09.205Z,100657.09
2022-10-21T05:09:38.353Z,100651.88
2022-10-21T05:12:12.111Z,100654.84
2022-10-21T05:14:42.278Z,100651.88
2022-10-21T05:17:11.909Z,100656.28
2022-10-21T05:19:41.632Z,100653.53
2022-10-21T05:22:13.056Z,100656.78
2022-10-21T05:24:42.648Z,100646.56
2022-10-21T05:27:12.289Z,100643.19
2022-10-21T05:29:42.010Z,100646.13
2022-10-21T05:32:11.776Z,100650.22
2022-10-21T05:34:41.610Z,100648.31
2022-10-21T05:37:11.950Z,100647.38
2022-10-21T05:42:30.928Z,100638.44
2022-10-21T05:45:00.744Z,100642.06
2022-10-21T05:47:30.647Z,100646.13
2022-10-21T05:50:00.436Z,100647.75
2022-10-21T05:52:30.324Z,100654.31
2022-10-21T05:55:00.150Z,100646.00
2022-10-21T05:57:34.552Z,100639.38
2022-10-21T06:00:07.349Z,100641.19
2022-10-21T06:02:37.504Z,100640.38
2022-10-21T06:05:08.598Z,100634.22
2022-10-21T06:07:38.739Z,100629.41
2022-10-21T06:10:09.900Z,100632.69
2022-10-21T06:12:40.325Z,100627.34
2022-10-21T06:15:11.054Z,100628.59
2022-10-21T06:17:41.239Z,100632.69
2022-10-21T06:20:11.700Z,100626.66
2022-10-21T06:22:41.618Z,100626.66
2022-10-21T06:25:11.652Z,100622.75
2022-10-21T06:27:41.760Z,100616.59
2022-10-21T06:30:11.794Z,100619.53
2022-10-21T06:32:41.530Z,100619.31
2022-10-21T06:35:11.417Z,100632.03
2022-10-21T06:37:41.367Z,100624.66
2022-10-21T06:40:12.030Z,100632.13
2022-10-21T06:42:41.938Z,100638.38
2022-10-21T06:45:11.897Z,100642.84
2022-10-21T06:47:42.156Z,100637.94
2022-10-21T06:50:13.920Z,100627.38
2022-10-21T06:52:44.094Z,100638.63
2022-10-21T06:55:13.895Z,100629.19
2022-10-21T06:57:44.716Z,100641.91
2022-10-21T07:00:15.724Z,100643.22
2022-10-21T07:02:45.520Z,100642.78
2022-10-21T07:05:15.418Z,100651.47
2022-10-21T07:07:45.338Z,100642.34
2022-10-21T07:10:15.163Z,100648.06
2022-10-21T07:12:46.810Z,100655.22
2022-10-21T07:15:16.961Z,100655.72
2022-10-21T07:17:46.978Z,100660.25
2022-10-21T07:20:16.797Z,100663.22
2022-10-21T07:22:46.612Z,100656.06
2022-10-21T07:25:16.355Z,100658.50
2022-10-21T07:27:48.551Z,100668.94
2022-10-21T07:30:18.840Z,100668.00
2022-10-21T07:32:48.902Z,100662.66
2022-10-21T07:35:18.794Z,100656.72
2022-10-21T07:37:48.571Z,100647.47
2022-10-21T07:40:18.404Z,100647.34
2022-10-21T07:42:48.243Z,100652.28
2022-10-21T07:45:18.052Z,100652.13
2022-10-21T07:47:48.954Z,100663.41
2022-10-21T07:50:18.768Z,100657.75
2022-10-21T07:52:56.054Z,100654.97
2022-10-21T07:55:31.092Z,100650.59
2022-10-21T07:58:01.012Z,100640.41
2022-10-21T08:00:30.994Z,100634.06
2022-10-21T08:03:00.892Z,100634.44
2022-10-21T08:05:30.863Z,100643.91
2022-10-21T08:08:00.727Z,100641.97
2022-10-21T08:10:30.504Z,100650.63
2022-10-21T08:13:00.283Z,100647.88
2022-10-21T08:15:30.045Z,100656.22
2022-10-21T08:17:59.859Z,100647.09
2022-10-21T08:20:29.665Z,100646.00
2022-10-21T08:22:59.511Z,100641.91
2022-10-21T08:25:30.180Z,100640.94
2022-10-21T08:28:00.103Z,100635.25
2022-10-21T08:30:31.804Z,100628.53
2022-10-21T08:33:02.123Z,100623.81
2022-10-21T08:35:32.020Z,100629.88
2022-10-21T08:38:01.830Z,100627.72
2022-10-21T08:40:45.878Z,100617.78
2022-10-21T08:43:33.051Z,100617.94
2022-10-21T08:46:27.107Z,100613.34
2022-10-21T08:49:16.568Z,100611.00
2022-10-21T08:52:11.070Z,100624.81
2022-10-21T08:55:07.846Z,100616.63
2022-10-21T08:57:38.112Z,100624.56
2022-10-21T09:00:38.633Z,100621.59
2022-10-21T09:03:48.293Z,100617.53
2022-10-21T09:06:48.834Z,100602.13
2022-10-21T09:09:48.693Z,100600.13
2022-10-21T09:13:33.558Z,100594.09
2022-10-21T09:16:51.742Z,100591.63
2022-10-21T09:20:16.478Z,100594.25
2022-10-21T09:23:18.702Z,100584.00
2022-10-21T09:26:20.004Z,100584.31
2022-10-21T09:28:51.410Z,100581.00
2022-10-21T09:31:22.366Z,100582.75
2022-10-21T09:34:15.369Z,100581.84
2022-10-21T09:36:52.893Z,100587.97
2022-10-21T09:39:46.380Z,100593.56
2022-10-21T09:42:29.522Z,100585.78
2022-10-21T09:45:39.188Z,100585.53
2022-10-21T09:48:17.961Z,100589.63
2022-10-21T09:50:59.404Z,100598.28
2022-10-21T09:53:52.956Z,100592.75
2022-10-21T09:57:10.594Z,100598.75
2022-10-21T10:00:02.400Z,100580.16
2022-10-21T10:02:41.159Z,100593.63
2022-10-21T10:05:49.414Z,100594.75
2022-10-21T10:08:47.491Z,100597.34
2022-10-21T10:11:21.865Z,100581.72
2022-10-21T10:13:53.962Z,100581.09
2022-10-21T10:16:33.187Z,100578.69
2022-10-21T10:19:19.408Z,100564.00
2022-10-21T10:22:15.978Z,100568.56
2022-10-21T10:24:45.359Z,100561.00
2022-10-21T10:27:26.709Z,100552.88
2022-10-21T10:30:01.314Z,100554.84
2022-10-21T10:32:35.748Z,100552.25
2022-10-21T10:35:21.390Z,100548.47
2022-10-21T10:37:51.142Z,100542.44
2022-10-21T10:40:39.530Z,100533.81
2022-10-21T10:43:26.332Z,100537.28
2022-10-21T10:46:08.610Z,100536.22
2022-10-21T10:48:49.158Z,100535.75
2022-10-21T10:51:33.956Z,100530.97
2022-10-21T10:54:06.544Z,100519.75
2022-10-21T10:56:55.911Z,100529.13
2022-10-21T11:00:14.122Z,100515.75
2022-10-21T11:03:13.705Z,100513.72
2022-10-21T11:06:05.891Z,100511.03
2022-10-21T11:08:52.073Z,100511.91
2022-10-21T11:11:37.426Z,100509.38
2022-10-21T11:14:21.852Z,100503.78
2022-10-21T11:17:21.142Z,100509.59
2022-10-21T11:20:36.886Z,100505.44
2022-10-21T11:23:39.444Z,100508.66
2022-10-21T11:26:42.192Z,100495.88
2022-10-21T11:29:47.217Z,100500.69
2022-10-21T11:32:48.614Z,100504.59
2022-10-21T11:35:56.719Z,100500.47
2022-10-21T11:39:21.260Z,100498.16
2022-10-21T11:42:16.875Z,100494.78
2022-10-21T11:45:44.470Z,100485.31
2022-10-21T11:49:21.866Z,100487.75
2022-10-21T11:52:15.179Z,100495.47
2022-10-21T11:55:24.909Z,100505.91
2022-10-21T11:58:38.582Z,100496.50
2022-10-21T12:01:39.563Z,100497.78
2022-10-21T12:04:51.154Z,100496.72
2022-10-21T12:08:16.109Z,100482.66
2022-10-21T12:11:00.688Z,100486.25
2022-10-21T12:13:44.586Z,100488.13
2022-10-21T12:16:28.237Z,100486.97
2022-10-21T12:19:06.538Z,100478.03
2022-10-21T12:21:45.987Z,100495.69
2022-10-21T12:24:41.484Z,100496.22
2022-10-21T12:27:29.693Z,100495.97
2022-10-21T12:30:23.536Z,100496.66
2022-10-21T12:33:16.126Z,100481.72
2022-10-21T12:35:57.028Z,100489.28
2022-10-21T12:38:51.936Z,100481.28
2022-10-21T12:41:39.487Z,100488.91
2022-10-21T12:44:28.141Z,100495.31
2022-10-21T12:47:25.736Z,100493.69
2022-10-21T12:50:16.985Z,100496.13
2022-10-21T12:53:27.884Z,100486.03
2022-10-21T12:56:01.806Z,100488.28
2022-10-21T12:58:45.532Z,100488.19
2022-10-21T13:02:06.266Z,100470.78
2022-10-21T13:04:36.310Z,100478.34
2022-10-21T13:07:33.239Z,100469.50
2022-10-21T13:10:04.947Z,100468.81
2022-10-21T13:12:34.894Z,100469.25
2022-10-21T13:15:23.054Z,100468.53
2022-10-21T13:17:55.614Z,100470.16
2022-10-21T13:20:25.409Z,100460.88
2022-10-21T13:23:36.118Z,100451.59
2022-10-21T13:26:19.364Z,100460.50
2022-10-21T13:29:11.493Z,100462.72
2022-10-21T13:31:44.100Z,100459.84
2022-10-21T13:34:30.370Z,100463.00
2022-10-21T13:37:00.393Z,100460.09
2022-10-21T13:39:35.317Z,100450.81
2022-10-21T13:42:17.485Z,100453.97
2022-10-21T13:45:04.095Z,100451.63
2022-10-21T13:47:35.906Z,100460.81
2022-10-21T13:50:28.389Z,100461.28
2022-10-21T13:52:59.740Z,100452.34
2022-10-21T13:55:29.611Z,100459.44
2022-10-21T13:57:59.405Z,100455.00
2022-10-21T14:00:32.637Z,100459.34
2022-10-21T14:03:06.240Z,100460.53
2022-10-21T14:05:52.457Z,100453.44
2022-10-21T14:08:48.317Z,100460.44
2022-10-21T14:11:34.785Z,100462.22
2022-10-21T14:14:16.027Z,100461.31
2022-10-21T14:17:01.035Z,100457.59
2022-10-21T14:19:38.701Z,100455.38
2022-10-21T14:22:14.379Z,100454.09
2022-10-21T14:24:51.449Z,100462.91
2022-10-21T14:27:34.021Z,100457.25
2022-10-21T14:30:10.245Z,100460.84
2022-10-21T14:32:40.579Z,100456.78
2022-10-21T14:35:10.490Z,100455.50
2022-10-21T14:38:03.881Z,100450.19
2022-10-21T14:40:42.838Z,100450.31
2022-10-21T14:43:12.475Z,100449.41
2022-10-21T14:45:53.759Z,100448.13
2022-10-21T14:48:48.310Z,100445.56
2022-10-21T14:51:24.253Z,100440.94
2022-10-21T14:54:04.226Z,100432.94
2022-10-21T14:56:44.538Z,100436.53
2022-10-21T14:59:42.127Z,100429.34
2022-10-21T15:02:39.035Z,100422.94
2022-10-21T15:05:35.724Z,100420.16
2022-10-21T15:08:20.843Z,100422.47
2022-10-21T15:11:05.622Z,100422.13
2022-10-21T15:13:35.801Z,100416.56
2022-10-21T15:16:19.651Z,100420.41
2022-10-21T15:18:53.977Z,100407.16
2022-10-21T15:21:53.153Z,100409.47
2022-10-21T15:24:45.196Z,100410.91
2022-10-21T15:27:37.100Z,100405.22
2022-10-21T15:30:20.287Z,100411.13
2022-10-21T15:32:51.070Z,100407.41
2022-10-21T15:35:23.696Z,100404.50
2022-10-21T15:37:54.721Z,100407.53
2022-10-21T15:40:22.749Z,100404.16
2022-10-21T15:42:52.586Z,100407.19
2022-10-21T15:45:26.031Z,100398.72
2022-10-21T15:47:56.304Z,100409.75
2022-10-21T15:50:27.513Z,100396.84
2022-10-21T15:52:57.054Z,100399.53
2022-10-21T15:55:26.819Z,100396.63
2022-10-21T15:57:56.630Z,100398.94
2022-10-21T16:00:26.426Z,100388.50
2022-10-21T16:02:56.315Z,100396.72
2022-10-21T16:05:26.223Z,100400.19
2022-10-21T16:07:57.634Z,100405.66
2022-10-21T16:10:37.637Z,100404.72
2022-10-21T16:13:04.920Z,100412.59
2022-10-21T16:15:32.699Z,100405.06
2022-10-21T16:18:02.516Z,100396.69
2022-10-21T16:20:33.743Z,100397.03
2022-10-21T16:23:03.958Z,100401.59
2022-10-21T16:25:34.148Z,100402.41
2022-10-21T16:28:04.905Z,100402.41
2022-10-21T16:30:39.323Z,100407.16
2022-10-21T16:33:11.207Z,100413.63
2022-10-21T16:35:39.723Z,100410.50
2022-10-21T16:38:10.169Z,100407.88
2022-10-21T16:40:39.676Z,100418.09
2022-10-21T16:43:09.342Z,100416.91
2022-10-21T16:45:40.920Z,100422.47
2022-10-21T16:48:10.944Z,100417.72
2022-10-21T16:50:46.760Z,100428.97
2022-10-21T16:53:17.779Z,100418.66
2022-10-21T16:55:47.722Z,100427.84
2022-10-21T16:58:17.462Z,100427.47
2022-10-21T17:00:48.816Z,100433.50
2022-10-21T17:03:18.818Z,100425.63
2022-10-21T17:05:50.493Z,100422.50
2022-10-21T17:08:20.465Z,100420.19
2022-10-21T17:10:50.162Z,100426.56
2022-10-21T17:13:20.092Z,100446.88
2022-10-21T17:15:49.936Z,100439.78
2022-10-21T17:18:19.818Z,100443.03
2022-10-21T17:20:50.804Z,100446.06
2022-10-21T17:23:20.326Z,100450.56
2022-10-21T17:25:49.868Z,100446.66
2022-10-21T17:28:19.533Z,100456.63
2022-10-21T17:30:52.741Z,100452.78
2022-10-21T17:33:20.913Z,100457.22
2022-10-21T17:35:50.664Z,100453.25
2022-10-21T17:38:20.430Z,100459.28
2022-10-21T17:40:50.228Z,100466.03
2022-10-21T17:43:20.187Z,100462.31
2022-10-21T17:45:50.183Z,100460.00
2022-10-21T17:48:19.664Z,100455.22
2022-10-21T17:50:59.796Z,100453.03
2022-10-21T17:53:30.968Z,100443.03
2022-10-21T17:56:07.721Z,100450.25
2022-10-21T17:58:35.890Z,100446.66
2022-10-21T18:01:13.797Z,100447.94
2022-10-21T18:03:42.756Z,100445.69
2022-10-21T18:06:15.710Z,100451.84
2022-10-21T18:08:44.913Z,100453.84
2022-10-21T18:11:19.926Z,100443.16
2022-10-21T18:13:52.081Z,100442.91
2022-10-21T18:16:24.738Z,100441.28
2022-10-21T18:18:57.252Z,100446.50
2022-10-21T18:21:28.774Z,100444.88
2022-10-21T18:23:58.661Z,100450.00
2022-10-21T18:26:31.632Z,100459.16
2022-10-21T18:29:05.311Z,100454.75
2022-10-21T18:31:39.380Z,100459.63
2022-10-21T18:34:09.370Z,100455.31
2022-10-21T18:36:40.773Z,100457.31
2022-10-21T18:39:13.164Z,100454.06
2022-10-21T18:41:42.780Z,100456.84
2022-10-21T18:44:14.571Z,100449.66
2022-10-21T18:46:46.648Z,100457.31
2022-10-21T18:49:18.391Z,100446.97
2022-10-21T18:51:48.151Z,100451.72
2022-10-21T18:54:17.982Z,100440.59
2022-10-21T18:56:47.586Z,100441.28
2022-10-21T18:59:17.520Z,100445.22
2022-10-21T19:01:47.459Z,100441.75
2022-10-21T19:04:17.193Z,100441.75
2022-10-21T19:06:47.222Z,100437.00
2022-10-21T19:09:24.419Z,100438.25
2022-10-21T19:11:53.894Z,100443.03
2022-10-21T19:14:24.103Z,100446.88
2022-10-21T19:16:53.928Z,100443.63
2022-10-21T19:19:23.723Z,100448.84
2022-10-21T19:21:54.152Z,100448.84
2022-10-21T19:24:24.477Z,100452.31
2022-10-21T19:26:59.470Z,100442.69
2022-10-21T19:29:27.848Z,100450.59
2022-10-21T19:31:57.654Z,100455.34
2022-10-21T19:34:27.478Z,100448.13
2022-10-21T19:36:57.461Z,100450.47
2022-10-21T19:39:27.252Z,100449.66
2022-10-21T19:41:57.111Z,100461.28
2022-10-21T19:44:26.917Z,100460.81
2022-10-21T19:46:56.779Z,100462.78
2022-10-21T19:49:26.507Z,100469.97
2022-10-21T19:51:56.277Z,100469.50
2022-10-21T19:54:26.105Z,100481.44
2022-10-21T19:56:56.314Z,100483.09
2022-10-21T19:59:26.314Z,100476.25
2022-10-21T20:01:56.017Z,100473.47
2022-10-21T20:04:25.998Z,100473.81
2022-10-21T20:06:57.023Z,100473.81
2022-10-21T20:09:26.886Z,100466.25
2022-10-21T20:11:56.721Z,100489.34
2022-10-21T20:14:26.574Z,100484.13
2022-10-21T20:16:56.242Z,100487.72
2022-10-21T20:19:26.220Z,100488.91
2022-10-21T20:21:56.124Z,100483.78
2022-10-21T20:24:25.829Z,100481.34
2022-10-21T20:26:59.686Z,100486.22
2022-10-21T20:29:32.044Z,100480.19
2022-10-21T20:32:02.086Z,100480.09
2022-10-21T20:34:34.062Z,100477.63
2022-10-21T20:37:06.600Z,100480.41
2022-10-21T20:39:37.813Z,100472.75
2022-10-21T20:42:11.795Z,100458.00
2022-10-21T20:44:42.048Z,100470.34
2022-10-21T20:47:11.975Z,100477.38
2022-10-21T20:49:42.292Z,100476.00
2022-10-21T20:52:12.143Z,100480.41
2022-10-21T20:54:41.775Z,100476.13
2022-10-21T20:57:11.522Z,100477.28
2022-10-21T20:59:41.295Z,100483.66
2022-10-21T21:02:11.090Z,100485.97
2022-10-21T21:04:41.029Z,100488.53
2022-10-21T21:07:13.517Z,100496.53
2022-10-21T21:10:01.592Z,100497.34
2022-10-21T21:12:33.017Z,100499.91
2022-10-21T21:15:03.939Z,100500.72
2022-10-21T21:17:33.783Z,100503.84
2022-10-21T21:20:04.273Z,100507.56
2022-10-21T21:22:37.237Z,100510.34
2022-10-21T21:25:08.476Z,100514.66
2022-10-21T21:27:38.524Z,100507.94
2022-10-21T21:30:09.300Z,100514.66
2022-10-21T21:32:39.296Z,100504.22
2022-10-21T21:35:09.791Z,100502.25
2022-10-21T21:37:39.371Z,100498.19
2022-10-21T21:40:10.496Z,100495.03
2022-10-21T21:42:40.741Z,100492.25
2022-10-21T21:45:11.047Z,100489.00
2022-10-21T21:47:40.784Z,100475.78
2022-10-21T21:50:10.518Z,100473.00
2022-10-21T21:52:40.590Z,100467.28
2022-10-21T21:55:10.362Z,100476.00
2022-10-21T21:57:40.177Z,100477.50
2022-10-21T22:00:11.459Z,100481.78
2022-10-21T22:02:41.227Z,100475.28
2022-10-21T22:05:10.906Z,100483.50
2022-10-21T22:07:40.906Z,100477.50
2022-10-21T22:10:11.980Z,100487.81
2022-10-21T22:12:43.791Z,100478.78
2022-10-21T22:15:29.711Z,100487.13
2022-10-21T22:18:03.993Z,100497.44
2022-10-21T22:20:33.771Z,100497.56
2022-10-21T22:23:03.833Z,100496.88
2022-10-21T22:25:33.558Z,100498.97
2022-10-21T22:28:03.513Z,100498.63
2022-10-21T22:30:33.252Z,100505.47
2022-10-21T22:33:00.651Z,100506.75
2022-10-21T22:35:28.356Z,100501.97
2022-10-21T22:37:58.115Z,100502.44
2022-10-21T22:40:27.926Z,100504.91
2022-10-21T22:42:57.872Z,100508.50
2022-10-21T22:45:27.784Z,100503.75
2022-10-21T22:47:57.775Z,100506.16
2022-10-21T22:50:27.746Z,100508.63
2022-10-21T22:52:57.710Z,100499.91
2022-10-21T22:55:27.586Z,100511.88
2022-10-21T22:57:57.540Z,100511.88
2022-10-21T23:00:27.730Z,100519.41
2022-10-21T23:02:57.626Z,100529.28
2022-10-21T23:05:27.460Z,100521.28
2022-10-21T23:07:57.289Z,100520.94
2022-10-21T23:10:27.207Z,100522.88
2022-10-21T23:12:56.922Z,100520.94
2022-10-21T23:15:26.946Z,100519.75
2022-10-21T23:17:58.395Z,100521.75
2022-10-21T23:20:28.255Z,100516.16
2022-10-21T23:22:58.151Z,100510.13
2022-10-21T23:25:28.984Z,100500.13
2022-10-21T23:27:58.352Z,100495.28
2022-10-21T23:30:27.939Z,100480.16
2022-10-21T23:32:57.715Z,100463.00
2022-10-21T23:35:27.506Z,100468.00
2022-10-21T23:37:57.524Z,100463.00
2022-10-21T23:40:28.558Z,100468.69
2022-10-21T23:42:57.718Z,100462.38
2022-10-21T23:45:27.393Z,100467.59
2022-10-21T23:47:57.155Z,100466.88
2022-10-21T23:50:27.806Z,100474.97
2022-10-21T23:52:57.715Z,100485.81
2022-10-21T23:57:57.974Z,100512.22
